createdAt,value
2023-03-22T00:02:46.051Z,8.27
2023-03-22T00:05:59.677Z,8.27
2023-03-22T00:09:08.010Z,9.80
2023-03-22T00:12:16.269Z,8.80
2023-03-22T00:15:24.958Z,12.37
2023-03-22T00:18:33.531Z,9.53
2023-03-22T00:21:43.241Z,9.97
2023-03-22T00:24:51.584Z,9.97
2023-03-22T00:27:59.911Z,11.30
2023-03-22T00:31:09.174Z,11.00
2023-03-22T00:34:17.666Z,11.23
2023-03-22T00:37:34.008Z,11.53
2023-03-22T00:40:42.891Z,10.27
2023-03-22T00:43:52.242Z,8.87
2023-03-22T00:47:00.678Z,8.53
2023-03-22T00:50:09.928Z,8.60
2023-03-22T00:53:19.817Z,7.93
2023-03-22T00:56:28.927Z,6.23
2023-03-22T00:59:43.251Z,7.13
2023-03-22T01:02:53.778Z,7.23
2023-03-22T01:06:03.680Z,7.33
2023-03-22T01:09:14.993Z,5.27
2023-03-22T01:12:23.442Z,6.73
2023-03-22T01:15:32.078Z,7.30
2023-03-22T01:18:40.809Z,6.10
2023-03-22T01:21:50.046Z,7.47
2023-03-22T01:24:59.843Z,8.67
2023-03-22T01:28:08.765Z,10.23
2023-03-22T01:31:17.271Z,10.47
2023-03-22T01:34:26.605Z,9.40
2023-03-22T01:37:36.616Z,9.63
2023-03-22T01:40:46.694Z,9.03
2023-03-22T01:44:12.676Z,10.20
2023-03-22T01:47:21.399Z,11.27
2023-03-22T01:50:31.271Z,12.47
2023-03-22T01:53:44.088Z,12.70
2023-03-22T01:56:54.125Z,12.53
2023-03-22T02:00:15.478Z,14.87
2023-03-22T02:03:49.832Z,15.80
2023-03-22T02:07:00.704Z,14.37
2023-03-22T02:10:13.831Z,14.47
2023-03-22T02:13:56.162Z,14.17
2023-03-22T02:17:32.058Z,19.63
2023-03-22T02:21:16.036Z,17.00
2023-03-22T02:25:01.937Z,11.47
2023-03-22T02:28:18.789Z,14.00
2023-03-22T02:31:51.080Z,12.40
2023-03-22T02:35:34.788Z,11.37
2023-03-22T02:39:16.776Z,13.60
2023-03-22T02:42:37.060Z,10.67
2023-03-22T02:45:51.229Z,12.90
2023-03-22T02:49:07.891Z,14.73
2023-03-22T02:52:20.965Z,11.77
2023-03-22T02:55:34.881Z,11.97
2023-03-22T02:58:47.626Z,11.17
2023-03-22T03:01:58.447Z,12.63
2023-03-22T03:05:08.301Z,16.13
2023-03-22T03:08:19.108Z,15.00
2023-03-22T03:11:32.026Z,18.50
2023-03-22T03:14:40.949Z,18.97
2023-03-22T03:18:13.785Z,16.10
2023-03-22T03:21:34.843Z,18.20
2023-03-22T03:24:50.205Z,18.63
2023-03-22T03:28:10.094Z,16.93
2023-03-22T03:31:27.702Z,15.23
2023-03-22T03:34:42.579Z,16.60
2023-03-22T03:37:53.851Z,15.30
2023-03-22T03:41:05.687Z,14.80
2023-03-22T03:44:17.631Z,17.23
2023-03-22T03:47:29.715Z,16.37
2023-03-22T03:50:38.192Z,16.07
2023-03-22T03:53:47.191Z,15.87
2023-03-22T03:56:56.098Z,16.70
2023-03-22T04:00:07.105Z,19.10
2023-03-22T04:03:33.770Z,17.00
2023-03-22T04:06:44.994Z,15.43
2023-03-22T04:09:58.404Z,16.43
2023-03-22T04:13:11.771Z,13.90
2023-03-22T04:16:21.787Z,15.97
2023-03-22T04:19:30.988Z,13.53
2023-03-22T04:22:39.904Z,12.43
2023-03-22T04:25:50.271Z,12.23
2023-03-22T04:29:05.655Z,12.47
2023-03-22T04:32:18.936Z,11.10
2023-03-22T04:35:27.573Z,11.57
2023-03-22T04:38:37.393Z,11.23
2023-03-22T04:41:45.832Z,12.30
2023-03-22T04:44:54.247Z,12.23
2023-03-22T04:48:04.147Z,12.17
2023-03-22T04:51:14.242Z,12.73
2023-03-22T04:54:32.620Z,11.60
2023-03-22T04:57:40.989Z,10.60
2023-03-22T05:00:49.415Z,12.63
2023-03-22T05:03:59.202Z,11.77
2023-03-22T05:07:08.253Z,14.00
2023-03-22T05:10:25.036Z,9.37
2023-03-22T05:13:34.078Z,9.40
2023-03-22T05:16:42.705Z,17.53
2023-03-22T05:19:52.377Z,15.07
2023-03-22T05:23:02.623Z,11.63
2023-03-22T05:26:16.095Z,11.03
2023-03-22T05:29:24.974Z,12.93
2023-03-22T05:32:49.608Z,11.57
2023-03-22T05:35:59.520Z,10.63
2023-03-22T05:39:10.985Z,10.20
2023-03-22T05:42:19.424Z,12.67
2023-03-22T05:45:28.018Z,17.87
2023-03-22T05:48:45.045Z,18.83
2023-03-22T05:51:56.003Z,17.33
2023-03-22T05:55:08.219Z,18.13
2023-03-22T05:58:19.374Z,16.07
2023-03-22T06:01:30.143Z,21.33
2023-03-22T06:04:53.394Z,20.50
2023-03-22T06:08:04.004Z,21.73
2023-03-22T06:11:12.701Z,25.20
2023-03-22T06:14:21.334Z,24.43
2023-03-22T06:17:43.040Z,27.03
2023-03-22T06:20:54.277Z,24.87
2023-03-22T06:24:04.433Z,24.80
2023-03-22T06:27:13.012Z,24.73
2023-03-22T06:30:22.495Z,23.53
2023-03-22T06:33:46.575Z,23.87
2023-03-22T06:37:07.090Z,26.03
2023-03-22T06:40:20.370Z,25.83
2023-03-22T06:43:28.904Z,26.37
2023-03-22T06:46:49.409Z,23.17
2023-03-22T06:50:30.444Z,27.97
2023-03-22T06:53:49.614Z,28.33
2023-03-22T06:56:59.511Z,26.33
2023-03-22T07:00:10.096Z,29.37
2023-03-22T07:03:18.369Z,31.80
2023-03-22T07:06:32.709Z,29.20
2023-03-22T07:09:41.581Z,27.87
2023-03-22T07:12:51.540Z,27.03
2023-03-22T07:16:03.312Z,28.40
2023-03-22T07:19:24.471Z,26.70
2023-03-22T07:22:33.130Z,27.50
2023-03-22T07:25:41.647Z,29.63
2023-03-22T07:29:02.601Z,29.17
2023-03-22T07:32:14.199Z,34.13
2023-03-22T07:35:46.509Z,32.77
2023-03-22T07:38:55.004Z,32.00
2023-03-22T07:42:09.586Z,36.40
2023-03-22T07:45:20.398Z,38.97
2023-03-22T07:48:51.491Z,38.57
2023-03-22T07:52:20.229Z,33.50
2023-03-22T07:55:29.482Z,39.30
2023-03-22T07:58:37.940Z,36.20
2023-03-22T08:01:47.861Z,36.53
2023-03-22T08:05:07.367Z,31.87
2023-03-22T08:08:19.191Z,35.77
2023-03-22T08:11:28.578Z,41.33
2023-03-22T08:14:37.673Z,36.97
2023-03-22T08:17:52.481Z,37.23
2023-03-22T08:21:11.487Z,38.47
2023-03-22T08:24:20.381Z,36.60
2023-03-22T08:27:38.648Z,35.90
2023-03-22T08:30:49.166Z,32.60
2023-03-22T08:34:00.134Z,35.13
2023-03-22T08:37:09.838Z,39.13
2023-03-22T08:40:18.393Z,34.60
2023-03-22T08:43:31.723Z,37.87
2023-03-22T08:46:40.328Z,39.50
2023-03-22T08:49:50.080Z,35.40
2023-03-22T08:53:05.717Z,38.47
2023-03-22T08:56:17.170Z,38.90
2023-03-22T08:59:37.057Z,35.43
2023-03-22T09:03:05.932Z,30.87
2023-03-22T09:06:16.400Z,31.13
2023-03-22T09:09:25.370Z,32.33
2023-03-22T09:12:35.797Z,33.00
2023-03-22T09:15:45.936Z,33.10
2023-03-22T09:19:03.419Z,30.83
2023-03-22T09:22:14.284Z,25.73
2023-03-22T09:25:28.249Z,28.27
2023-03-22T09:28:37.475Z,26.00
2023-03-22T09:31:49.485Z,28.77
2023-03-22T09:35:01.871Z,23.10
2023-03-22T09:38:21.143Z,20.53
2023-03-22T09:41:37.939Z,19.27
2023-03-22T09:44:47.717Z,24.53
2023-03-22T09:48:02.085Z,25.00
2023-03-22T09:51:23.167Z,23.30
2023-03-22T09:54:35.495Z,19.67
2023-03-22T09:57:43.814Z,24.87
2023-03-22T10:00:57.697Z,20.67
2023-03-22T10:04:27.206Z,24.07
2023-03-22T10:07:45.429Z,21.53
2023-03-22T10:10:55.359Z,21.17
2023-03-22T10:14:23.583Z,21.23
2023-03-22T10:17:32.798Z,21.60
2023-03-22T10:20:45.332Z,19.87
2023-03-22T10:23:57.614Z,26.40
2023-03-22T10:27:16.083Z,23.17
2023-03-22T10:30:27.091Z,27.73
2023-03-22T10:33:50.078Z,21.37
2023-03-22T10:37:02.677Z,22.53
2023-03-22T10:40:18.247Z,20.50
2023-03-22T10:43:33.862Z,19.83
2023-03-22T10:46:43.757Z,19.53
2023-03-22T10:49:55.940Z,18.47
2023-03-22T10:53:06.942Z,22.10
2023-03-22T10:56:18.820Z,16.03
2023-03-22T10:59:48.600Z,18.80
2023-03-22T11:03:01.707Z,21.60
2023-03-22T11:06:12.497Z,19.27
2023-03-22T11:09:23.577Z,22.50
2023-03-22T11:12:31.972Z,14.57
2023-03-22T11:15:43.564Z,19.67
2023-03-22T11:18:52.223Z,15.73
2023-03-22T11:22:01.350Z,15.77
2023-03-22T11:25:16.856Z,21.33
2023-03-22T11:28:29.582Z,16.37
2023-03-22T11:32:01.366Z,15.87
2023-03-22T11:35:14.960Z,21.53
2023-03-22T11:38:29.590Z,17.07
2023-03-22T11:41:40.513Z,18.73
2023-03-22T11:44:49.397Z,16.30
2023-03-22T11:48:03.672Z,16.20
2023-03-22T11:51:14.986Z,18.47
2023-03-22T11:54:30.550Z,16.13
2023-03-22T11:57:39.056Z,16.57
2023-03-22T12:00:52.363Z,19.30
2023-03-22T12:04:06.727Z,17.17
2023-03-22T12:07:17.343Z,19.27
2023-03-22T12:10:31.001Z,19.90
2023-03-22T12:13:50.123Z,21.27
2023-03-22T12:17:02.785Z,19.03
2023-03-22T12:20:21.526Z,20.20
2023-03-22T12:23:31.788Z,19.77
2023-03-22T12:26:40.804Z,18.67
2023-03-22T12:29:55.256Z,21.67
2023-03-22T12:33:06.948Z,19.23
2023-03-22T12:36:20.577Z,20.33
2023-03-22T12:39:33.576Z,16.17
2023-03-22T12:42:54.148Z,16.27
2023-03-22T12:46:06.518Z,18.00
2023-03-22T12:49:22.512Z,18.07
2023-03-22T12:52:45.445Z,19.33
2023-03-22T12:55:55.589Z,19.27
2023-03-22T12:59:06.598Z,21.07
2023-03-22T13:02:18.408Z,22.37
2023-03-22T13:05:30.890Z,20.77
2023-03-22T13:09:16.994Z,19.47
2023-03-22T13:12:34.432Z,17.63
2023-03-22T13:15:59.236Z,13.73
2023-03-22T13:19:29.990Z,21.60
2023-03-22T13:23:10.589Z,22.50
2023-03-22T13:26:21.876Z,17.33
2023-03-22T13:29:37.506Z,17.97
2023-03-22T13:32:54.626Z,18.07
2023-03-22T13:36:09.250Z,14.73
2023-03-22T13:39:18.546Z,11.13
2023-03-22T13:42:36.803Z,15.43
2023-03-22T13:46:07.883Z,15.27
2023-03-22T13:49:32.783Z,13.87
2023-03-22T13:52:45.082Z,15.57
2023-03-22T13:56:03.610Z,17.50
2023-03-22T13:59:15.549Z,17.23
2023-03-22T14:02:29.279Z,15.53
2023-03-22T14:05:39.602Z,17.33
2023-03-22T14:08:51.864Z,18.47
2023-03-22T14:12:08.554Z,16.93
2023-03-22T14:15:20.832Z,17.37
2023-03-22T14:18:31.775Z,16.47
2023-03-22T14:21:43.643Z,15.37
